createdAt,value
2022-08-24T00:02:04.601Z,22.92
2022-08-24T00:04:33.980Z,23.03
2022-08-24T00:07:04.556Z,22.94
2022-08-24T00:09:34.938Z,22.92
2022-08-24T00:12:06.131Z,23.02
2022-08-24T00:14:36.917Z,23.04
2022-08-24T00:17:06.955Z,22.99
2022-08-24T00:19:36.009Z,23.05
2022-08-24T00:22:05.358Z,23.06
2022-08-24T00:24:35.681Z,23.02
2022-08-24T00:27:04.817Z,23.04
2022-08-24T00:29:33.943Z,23.01
2022-08-24T00:32:02.895Z,22.80
2022-08-24T00:34:32.700Z,22.90
2022-08-24T00:37:01.578Z,22.90
2022-08-24T00:39:30.497Z,22.77
2022-08-24T00:42:00.596Z,22.72
2022-08-24T00:44:30.295Z,22.79
2022-08-24T00:47:03.292Z,22.79
2022-08-24T00:49:38.690Z,22.77
2022-08-24T00:52:13.133Z,22.21
2022-08-24T00:54:46.897Z,22.66
2022-08-24T00:57:21.300Z,22.61
2022-08-24T00:59:55.264Z,22.63
2022-08-24T01:02:28.592Z,22.55
2022-08-24T01:04:59.996Z,22.73
2022-08-24T01:07:31.677Z,22.74
2022-08-24T01:10:02.832Z,22.70
2022-08-24T01:12:35.647Z,22.57
2022-08-24T01:15:07.676Z,22.57
2022-08-24T01:17:55.533Z,22.52
2022-08-24T01:20:27.029Z,22.37
2022-08-24T01:23:04.726Z,22.47
2022-08-24T01:25:38.594Z,22.41
2022-08-24T01:28:14.945Z,22.31
2022-08-24T01:30:44.845Z,22.17
2022-08-24T01:33:25.624Z,22.25
2022-08-24T01:35:58.990Z,22.13
2022-08-24T01:38:28.385Z,22.11
2022-08-24T01:41:03.628Z,22.08
2022-08-24T01:43:34.443Z,22.00
2022-08-24T01:46:09.022Z,22.02
2022-08-24T01:48:37.962Z,21.97
2022-08-24T01:51:07.842Z,21.92
2022-08-24T01:53:36.888Z,21.97
2022-08-24T01:56:08.715Z,21.84
2022-08-24T01:58:37.464Z,21.80
2022-08-24T02:01:07.562Z,21.85
2022-08-24T02:03:36.329Z,21.80
2022-08-24T02:06:05.584Z,21.71
2022-08-24T02:08:36.235Z,21.66
2022-08-24T02:11:09.917Z,21.69
2022-08-24T02:13:41.401Z,21.68
2022-08-24T02:16:10.605Z,21.72
2022-08-24T02:18:40.686Z,21.64
2022-08-24T02:21:10.153Z,21.64
2022-08-24T02:23:40.858Z,21.60
2022-08-24T02:26:13.199Z,21.61
2022-08-24T02:28:42.603Z,21.63
2022-08-24T02:31:14.171Z,21.56
2022-08-24T02:33:45.014Z,21.39
2022-08-24T02:36:25.694Z,21.42
2022-08-24T02:38:56.371Z,21.31
2022-08-24T02:41:27.769Z,21.12
2022-08-24T02:43:57.707Z,21.23
2022-08-24T02:46:29.025Z,21.35
2022-08-24T02:49:10.866Z,21.17
2022-08-24T02:51:47.421Z,21.09
2022-08-24T02:54:22.204Z,21.12
2022-08-24T02:56:55.118Z,21.07
2022-08-24T02:59:24.850Z,21.11
2022-08-24T03:01:54.801Z,21.19
2022-08-24T03:04:25.705Z,21.19
2022-08-24T03:06:54.554Z,21.30
2022-08-24T03:09:24.764Z,21.25
2022-08-24T03:12:00.754Z,21.15
2022-08-24T03:14:29.480Z,21.09
2022-08-24T03:16:58.926Z,21.07
2022-08-24T03:19:28.331Z,20.81
2022-08-24T03:21:58.200Z,21.00
2022-08-24T03:24:28.288Z,21.11
2022-08-24T03:26:57.517Z,21.06
2022-08-24T03:29:32.966Z,21.09
2022-08-24T03:32:03.516Z,21.08
2022-08-24T03:34:32.385Z,21.04
2022-08-24T03:37:01.084Z,21.20
2022-08-24T03:39:30.781Z,21.20
2022-08-24T03:41:59.958Z,21.22
2022-08-24T03:44:30.002Z,21.25
2022-08-24T03:46:58.846Z,20.77
2022-08-24T03:49:29.627Z,21.23
2022-08-24T03:51:59.107Z,21.33
2022-08-24T03:54:27.932Z,21.35
2022-08-24T03:56:59.011Z,21.34
2022-08-24T03:59:29.713Z,21.33
2022-08-24T04:02:00.512Z,21.31
2022-08-24T04:04:30.496Z,21.39
2022-08-24T04:06:59.305Z,21.40
2022-08-24T04:09:30.168Z,21.35
2022-08-24T04:11:59.331Z,21.48
2022-08-24T04:14:30.031Z,21.49
2022-08-24T04:17:05.609Z,21.62
2022-08-24T04:19:57.577Z,21.62
2022-08-24T04:22:32.102Z,21.64
2022-08-24T04:25:01.016Z,21.68
2022-08-24T04:27:30.859Z,21.46
2022-08-24T04:30:01.087Z,21.56
2022-08-24T04:32:36.375Z,21.67
2022-08-24T04:35:07.611Z,21.83
2022-08-24T04:37:36.287Z,21.80
2022-08-24T04:40:07.506Z,21.88
2022-08-24T04:42:42.414Z,22.03
2022-08-24T04:45:12.874Z,22.09
2022-08-24T04:47:41.591Z,22.14
2022-08-24T04:50:10.583Z,22.12
2022-08-24T04:52:39.389Z,22.24
2022-08-24T04:55:09.076Z,22.18
2022-08-24T04:57:38.160Z,22.22
2022-08-24T05:00:09.738Z,22.24
2022-08-24T05:02:47.200Z,22.10
2022-08-24T05:05:16.426Z,22.34
2022-08-24T05:07:45.902Z,22.19
2022-08-24T05:10:15.681Z,22.47
2022-08-24T05:12:45.779Z,22.48
2022-08-24T05:15:16.422Z,22.51
2022-08-24T05:17:51.008Z,22.73
2022-08-24T05:20:20.792Z,21.20
2022-08-24T05:22:54.202Z,22.62
2022-08-24T05:25:27.335Z,22.82
2022-08-24T05:27:56.722Z,22.83
2022-08-24T05:30:25.976Z,22.92
2022-08-24T05:33:01.547Z,22.97
2022-08-24T05:35:30.542Z,23.11
2022-08-24T05:38:05.071Z,23.07
2022-08-24T05:40:39.697Z,23.12
2022-08-24T05:43:09.673Z,23.21
2022-08-24T05:45:42.944Z,23.32
2022-08-24T05:48:14.241Z,23.15
2022-08-24T05:51:10.654Z,23.47
2022-08-24T05:53:50.270Z,23.62
2022-08-24T05:56:21.211Z,23.66
2022-08-24T05:58:50.756Z,23.96
2022-08-24T06:01:24.693Z,24.10
2022-08-24T06:03:57.451Z,23.98
2022-08-24T06:06:27.749Z,24.22
2022-08-24T06:08:59.145Z,24.30
2022-08-24T06:11:30.828Z,24.36
2022-08-24T06:14:07.184Z,24.55
2022-08-24T06:16:38.042Z,24.45
2022-08-24T06:19:10.546Z,24.24
2022-08-24T06:21:39.581Z,24.35
2022-08-24T06:24:09.146Z,24.52
2022-08-24T06:26:55.946Z,24.66
2022-08-24T06:29:24.794Z,24.56
2022-08-24T06:32:05.116Z,24.74
2022-08-24T06:34:36.442Z,24.96
2022-08-24T06:37:05.439Z,24.79
2022-08-24T06:39:35.177Z,24.93
2022-08-24T06:42:05.339Z,25.19
2022-08-24T06:44:35.292Z,25.24
2022-08-24T06:47:19.248Z,25.65
2022-08-24T06:49:54.236Z,25.76
2022-08-24T06:52:23.109Z,25.00
2022-08-24T06:54:53.281Z,25.35
2022-08-24T06:57:22.574Z,25.23
2022-08-24T06:59:51.365Z,25.43
2022-08-24T07:02:21.690Z,24.96
2022-08-24T07:04:51.958Z,25.63
2022-08-24T07:07:39.379Z,25.74
2022-08-24T07:10:09.899Z,25.74
2022-08-24T07:12:39.136Z,26.18
2022-08-24T07:15:15.836Z,26.11
2022-08-24T07:17:48.771Z,26.22
2022-08-24T07:20:19.913Z,26.47
2022-08-24T07:23:08.391Z,26.43
2022-08-24T07:25:37.679Z,26.13
2022-08-24T07:28:10.137Z,26.34
2022-08-24T07:30:42.948Z,26.59
2022-08-24T07:33:15.670Z,26.92
2022-08-24T07:35:45.897Z,26.87
2022-08-24T07:38:15.009Z,27.18
2022-08-24T07:41:14.475Z,27.45
2022-08-24T07:43:40.108Z,27.53
2022-08-24T07:46:13.703Z,27.42
2022-08-24T07:48:43.005Z,27.87
2022-08-24T07:51:18.146Z,28.12
2022-08-24T07:53:53.572Z,27.77
2022-08-24T07:56:28.836Z,28.35
2022-08-24T07:58:59.977Z,28.55
2022-08-24T08:01:39.174Z,28.14
2022-08-24T08:04:22.160Z,28.52
2022-08-24T08:06:52.643Z,28.82
2022-08-24T08:09:22.220Z,28.38
2022-08-24T08:11:51.186Z,28.46
2022-08-24T08:14:20.091Z,28.78
2022-08-24T08:16:49.695Z,29.04
2022-08-24T08:19:18.780Z,28.51
2022-08-24T08:22:08.018Z,28.64
2022-08-24T08:24:49.997Z,28.91
2022-08-24T08:27:21.066Z,29.27
2022-08-24T08:29:50.241Z,29.19
2022-08-24T08:32:20.422Z,29.05
2022-08-24T08:34:52.545Z,29.31
2022-08-24T08:37:21.967Z,28.87
2022-08-24T08:39:56.867Z,29.31
2022-08-24T08:42:46.450Z,29.23
2022-08-24T08:45:45.114Z,29.51
2022-08-24T08:49:05.009Z,29.75
2022-08-24T08:52:24.722Z,30.00
2022-08-24T08:55:05.366Z,30.23
2022-08-24T08:57:47.483Z,30.02
2022-08-24T09:00:19.003Z,30.28
2022-08-24T09:03:38.213Z,30.85
2022-08-24T09:06:55.200Z,31.24
2022-08-24T09:10:03.601Z,31.40
2022-08-24T09:12:50.269Z,31.72
2022-08-24T09:15:39.142Z,31.94
2022-08-24T09:18:27.964Z,32.15
2022-08-24T09:21:33.051Z,31.71
2022-08-24T09:24:14.189Z,32.49
2022-08-24T09:26:53.113Z,32.77
2022-08-24T09:29:42.884Z,32.61
2022-08-24T09:32:35.700Z,32.94
2022-08-24T09:35:09.382Z,32.55
2022-08-24T09:37:57.766Z,32.79
2022-08-24T09:40:55.232Z,32.97
2022-08-24T09:44:08.768Z,33.61
2022-08-24T09:47:21.330Z,32.86
2022-08-24T09:50:46.837Z,33.69
2022-08-24T09:53:43.544Z,33.52
2022-08-24T09:56:24.885Z,34.04
2022-08-24T09:59:12.770Z,33.85
2022-08-24T10:01:49.328Z,34.07
2022-08-24T10:04:29.763Z,34.38
2022-08-24T10:07:10.804Z,34.26
2022-08-24T10:10:03.928Z,34.53
2022-08-24T10:12:56.623Z,34.98
2022-08-24T10:15:30.367Z,34.05
2022-08-24T10:18:17.697Z,34.43
2022-08-24T10:21:13.764Z,34.79
2022-08-24T10:24:08.880Z,35.92
2022-08-24T10:26:53.869Z,38.06
2022-08-24T10:29:40.873Z,40.51
2022-08-24T10:32:27.839Z,40.75
2022-08-24T10:35:15.308Z,42.88
2022-08-24T10:38:32.934Z,41.19
2022-08-24T10:41:22.369Z,43.16
2022-08-24T10:44:30.987Z,41.45
2022-08-24T10:47:01.761Z,43.17
2022-08-24T10:50:09.678Z,43.72
2022-08-24T10:53:20.154Z,43.60
2022-08-24T10:56:01.370Z,46.52
2022-08-24T10:58:49.083Z,46.41
2022-08-24T11:01:23.985Z,44.61
2022-08-24T11:03:57.465Z,44.45
2022-08-24T11:06:31.453Z,45.53
2022-08-24T11:09:04.748Z,46.35
2022-08-24T11:11:36.811Z,46.46
2022-08-24T11:14:23.624Z,45.98
2022-08-24T11:16:57.500Z,46.51
2022-08-24T11:19:34.091Z,46.24
2022-08-24T11:22:07.436Z,47.12
2022-08-24T11:24:43.312Z,44.69
2022-08-24T11:27:25.590Z,48.14
2022-08-24T11:30:04.382Z,46.99
2022-08-24T11:32:40.089Z,48.52
2022-08-24T11:35:19.398Z,46.70
2022-08-24T11:37:51.691Z,48.04
2022-08-24T11:40:23.735Z,48.11
2022-08-24T11:43:06.047Z,48.54
2022-08-24T11:45:40.310Z,47.70
2022-08-24T11:48:28.511Z,45.37
2022-08-24T11:51:06.385Z,47.45
2022-08-24T11:53:47.903Z,48.92
2022-08-24T11:56:27.084Z,48.89
2022-08-24T11:59:02.897Z,49.70
2022-08-24T12:01:43.597Z,49.17
2022-08-24T12:04:23.614Z,50.52
2022-08-24T12:07:01.192Z,48.84
2022-08-24T12:09:43.932Z,47.86
2022-08-24T12:12:20.774Z,48.59
2022-08-24T12:15:00.927Z,50.48
2022-08-24T12:17:39.305Z,46.92
2022-08-24T12:20:25.555Z,48.91
2022-08-24T12:22:59.386Z,48.02
2022-08-24T12:25:49.657Z,49.61
2022-08-24T12:28:30.492Z,49.28
2022-08-24T12:31:08.137Z,48.53
2022-08-24T12:33:45.260Z,48.52
2022-08-24T12:36:22.669Z,44.40
2022-08-24T12:39:02.819Z,48.34
2022-08-24T12:41:36.094Z,50.57
2022-08-24T12:44:13.664Z,47.97
2022-08-24T12:46:44.863Z,48.86
2022-08-24T12:49:21.454Z,50.09
2022-08-24T12:52:15.342Z,49.40
2022-08-24T12:55:02.323Z,49.38
2022-08-24T12:57:51.811Z,47.77
2022-08-24T13:00:28.449Z,49.59
2022-08-24T13:03:06.086Z,50.95
2022-08-24T13:05:45.317Z,50.05
2022-08-24T13:08:22.894Z,48.93
2022-08-24T13:11:01.554Z,49.12
2022-08-24T13:13:48.125Z,49.76
2022-08-24T13:16:47.718Z,49.01
2022-08-24T13:19:32.427Z,48.60
2022-08-24T13:22:28.305Z,46.32
2022-08-24T13:25:02.923Z,47.22
2022-08-24T13:28:06.863Z,46.61
2022-08-24T13:31:01.465Z,48.30
2022-08-24T13:33:38.655Z,47.61
2022-08-24T13:36:48.510Z,46.78
2022-08-24T13:39:59.027Z,47.68
2022-08-24T13:43:17.702Z,46.67
2022-08-24T13:45:54.684Z,46.47
2022-08-24T13:48:43.323Z,48.03
2022-08-24T13:51:30.181Z,47.96
2022-08-24T13:54:26.903Z,49.17
2022-08-24T13:57:27.014Z,49.05
2022-08-24T14:00:26.582Z,49.70
2022-08-24T14:03:10.954Z,49.46
2022-08-24T14:05:48.871Z,48.91
2022-08-24T14:08:34.037Z,47.43
2022-08-24T14:11:12.176Z,48.66
2022-08-24T14:13:58.909Z,48.98
2022-08-24T14:16:57.566Z,48.60
2022-08-24T14:19:42.327Z,46.71
2022-08-24T14:22:31.759Z,44.92
2022-08-24T14:25:17.400Z,43.89
2022-08-24T14:27:48.505Z,46.48
2022-08-24T14:30:47.349Z,45.03
2022-08-24T14:33:29.956Z,44.18
2022-08-24T14:36:14.325Z,42.61
2022-08-24T14:38:56.045Z,43.15
2022-08-24T14:41:45.125Z,46.41
2022-08-24T14:44:27.209Z,43.76
2022-08-24T14:47:06.757Z,43.99
2022-08-24T14:49:44.767Z,43.52
2022-08-24T14:52:55.286Z,46.14
2022-08-24T14:55:32.880Z,44.41
2022-08-24T14:58:19.207Z,46.67
2022-08-24T15:01:08.177Z,46.10
2022-08-24T15:03:59.209Z,44.54
2022-08-24T15:06:38.699Z,44.76
2022-08-24T15:09:12.994Z,45.20
2022-08-24T15:11:43.408Z,44.48
2022-08-24T15:14:33.600Z,43.76
2022-08-24T15:17:11.168Z,42.37
2022-08-24T15:19:49.877Z,42.46
2022-08-24T15:22:28.150Z,43.09
2022-08-24T15:25:07.023Z,43.10
2022-08-24T15:27:44.950Z,43.32
2022-08-24T15:30:26.411Z,41.68
2022-08-24T15:33:05.545Z,42.31
2022-08-24T15:35:37.743Z,42.25
2022-08-24T15:38:22.687Z,42.49
2022-08-24T15:41:05.607Z,41.38
2022-08-24T15:43:37.900Z,41.00
2022-08-24T15:46:08.675Z,39.87
2022-08-24T15:48:39.194Z,39.40
2022-08-24T15:51:09.209Z,36.81
2022-08-24T15:53:40.826Z,35.54
2022-08-24T15:56:30.022Z,34.54
2022-08-24T15:59:12.918Z,34.20
2022-08-24T16:02:15.137Z,33.76
2022-08-24T16:04:48.137Z,33.22
2022-08-24T16:07:24.519Z,33.02
2022-08-24T16:10:07.199Z,32.83
2022-08-24T16:12:37.948Z,32.48
2022-08-24T16:15:17.348Z,32.28
2022-08-24T16:17:51.548Z,31.59
2022-08-24T16:20:33.330Z,31.76
2022-08-24T16:23:06.481Z,31.66
2022-08-24T16:25:42.782Z,31.73
2022-08-24T16:28:35.169Z,31.36
2022-08-24T16:31:09.268Z,31.30
2022-08-24T16:33:45.032Z,31.06
2022-08-24T16:36:18.012Z,31.08
2022-08-24T16:38:49.731Z,30.69
2022-08-24T16:41:26.006Z,30.60
2022-08-24T16:43:57.307Z,30.53
2022-08-24T16:46:26.951Z,30.44
2022-08-24T16:48:56.452Z,30.43
2022-08-24T16:51:26.568Z,30.17
2022-08-24T16:53:56.382Z,30.12
2022-08-24T16:56:26.549Z,29.95
2022-08-24T16:58:57.653Z,30.05
2022-08-24T17:01:29.288Z,29.93
2022-08-24T17:03:59.460Z,29.70
2022-08-24T17:06:29.056Z,29.62
2022-08-24T17:09:00.269Z,29.49
2022-08-24T17:11:30.076Z,29.50
2022-08-24T17:14:01.827Z,29.56
2022-08-24T17:16:31.775Z,29.35
2022-08-24T17:19:11.184Z,29.10
2022-08-24T17:21:43.082Z,29.08
2022-08-24T17:24:18.514Z,29.00
2022-08-24T17:26:48.888Z,28.79
2022-08-24T17:29:24.047Z,28.75
2022-08-24T17:31:55.170Z,28.67
2022-08-24T17:34:25.039Z,28.71
2022-08-24T17:36:56.926Z,28.66
2022-08-24T17:39:26.067Z,28.50
2022-08-24T17:41:57.140Z,28.49
2022-08-24T17:44:33.388Z,28.47
2022-08-24T17:47:03.837Z,28.35
2022-08-24T17:49:33.867Z,28.33
2022-08-24T17:52:02.981Z,28.19
2022-08-24T17:54:32.063Z,28.07
2022-08-24T17:57:01.106Z,28.04
2022-08-24T17:59:33.458Z,27.96
2022-08-24T18:02:05.291Z,27.85
2022-08-24T18:04:35.762Z,27.43
2022-08-24T18:07:09.607Z,27.76
2022-08-24T18:09:46.076Z,27.75
2022-08-24T18:12:16.599Z,27.69
2022-08-24T18:14:46.987Z,27.59
2022-08-24T18:17:22.856Z,27.50
2022-08-24T18:19:55.578Z,27.46
2022-08-24T18:22:24.570Z,27.22
2022-08-24T18:24:53.584Z,27.20
2022-08-24T18:27:29.907Z,27.10
2022-08-24T18:30:04.594Z,27.05
2022-08-24T18:32:39.067Z,26.90
2022-08-24T18:35:09.362Z,26.89
2022-08-24T18:37:39.210Z,26.85
2022-08-24T18:40:09.815Z,26.67
2022-08-24T18:43:17.075Z,26.64
2022-08-24T18:45:53.823Z,26.62
2022-08-24T18:48:25.220Z,26.52
2022-08-24T18:51:51.283Z,26.52
2022-08-24T18:54:24.278Z,26.52
2022-08-24T18:56:53.518Z,26.38
2022-08-24T18:59:25.214Z,26.31
2022-08-24T19:02:13.527Z,26.28
2022-08-24T19:04:47.814Z,26.26
2022-08-24T19:07:16.836Z,26.16
2022-08-24T19:09:45.822Z,26.15
2022-08-24T19:12:15.247Z,26.07
2022-08-24T19:14:46.505Z,26.01
2022-08-24T19:17:17.383Z,25.88
2022-08-24T19:19:46.882Z,25.89
2022-08-24T19:22:16.879Z,25.85
2022-08-24T19:24:46.533Z,25.73
2022-08-24T19:27:15.304Z,25.65
2022-08-24T19:29:55.631Z,25.50
2022-08-24T19:32:28.315Z,25.50
2022-08-24T19:34:59.794Z,25.43
2022-08-24T19:37:28.611Z,25.43
2022-08-24T19:39:57.971Z,25.41
2022-08-24T19:42:28.720Z,25.31
2022-08-24T19:45:17.737Z,25.31
2022-08-24T19:47:47.859Z,25.22
2022-08-24T19:50:21.144Z,25.14
2022-08-24T19:52:50.555Z,24.95
2022-08-24T19:55:19.616Z,24.77
2022-08-24T19:57:51.074Z,24.87
2022-08-24T20:00:30.759Z,24.76
2022-08-24T20:03:03.129Z,24.72
2022-08-24T20:05:32.213Z,24.53
2022-08-24T20:08:03.590Z,24.38
2022-08-24T20:10:34.432Z,24.27
2022-08-24T20:13:03.545Z,24.22
2022-08-24T20:15:34.058Z,24.20
2022-08-24T20:18:04.968Z,24.13
2022-08-24T20:20:34.032Z,24.03
2022-08-24T20:23:06.389Z,24.04
2022-08-24T20:25:36.450Z,24.00
2022-08-24T20:28:28.235Z,23.88
2022-08-24T20:30:56.321Z,23.88
2022-08-24T20:33:28.015Z,23.75
2022-08-24T20:35:57.363Z,23.66
2022-08-24T20:38:31.748Z,23.81
2022-08-24T20:41:02.184Z,23.56
2022-08-24T20:43:31.029Z,23.45
2022-08-24T20:46:00.117Z,23.31
2022-08-24T20:48:33.253Z,22.97
2022-08-24T20:51:02.691Z,23.24
2022-08-24T20:53:31.692Z,23.16
2022-08-24T20:56:05.022Z,23.02
2022-08-24T20:58:34.308Z,23.03
2022-08-24T21:01:03.320Z,23.01
2022-08-24T21:03:33.955Z,22.95
2022-08-24T21:06:02.905Z,23.13
2022-08-24T21:08:31.852Z,23.10
2022-08-24T21:11:00.584Z,23.08
2022-08-24T21:13:29.487Z,22.90
2022-08-24T21:15:58.523Z,22.81
2022-08-24T21:18:27.453Z,22.82
2022-08-24T21:21:04.119Z,22.65
2022-08-24T21:23:33.886Z,22.72
2022-08-24T21:26:05.024Z,22.68
2022-08-24T21:28:34.828Z,22.83
2022-08-24T21:31:06.355Z,22.59
2022-08-24T21:33:52.859Z,22.68
2022-08-24T21:36:25.597Z,22.83
2022-08-24T21:38:55.085Z,22.58
2022-08-24T21:41:23.898Z,22.65
2022-08-24T21:43:52.868Z,22.77
2022-08-24T21:46:25.132Z,22.77
2022-08-24T21:48:54.061Z,22.77
2022-08-24T21:51:24.610Z,22.79
2022-08-24T21:53:54.917Z,22.63
2022-08-24T21:56:31.891Z,22.49
2022-08-24T21:59:01.029Z,22.45
2022-08-24T22:01:30.094Z,22.29
2022-08-24T22:03:59.755Z,22.51
2022-08-24T22:06:31.991Z,22.41
2022-08-24T22:09:01.751Z,22.00
2022-08-24T22:11:31.341Z,22.30
2022-08-24T22:14:00.166Z,22.15
2022-08-24T22:16:29.119Z,22.12
2022-08-24T22:18:58.174Z,22.26
2022-08-24T22:21:30.919Z,22.12
2022-08-24T22:24:06.814Z,21.99
2022-08-24T22:26:36.937Z,21.95
2022-08-24T22:29:07.414Z,21.84
2022-08-24T22:31:38.760Z,21.77
2022-08-24T22:34:10.102Z,21.72
2022-08-24T22:36:40.479Z,21.61
2022-08-24T22:39:12.804Z,21.66
2022-08-24T22:41:41.920Z,21.57
2022-08-24T22:44:24.087Z,21.55
2022-08-24T22:46:55.129Z,21.57
2022-08-24T22:49:26.243Z,21.03
2022-08-24T22:51:55.341Z,21.52
2022-08-24T22:54:26.194Z,21.53
2022-08-24T22:56:56.998Z,21.69
2022-08-24T22:59:28.514Z,21.63
2022-08-24T23:01:58.635Z,21.53
2022-08-24T23:04:29.874Z,21.50
2022-08-24T23:06:58.724Z,21.43
2022-08-24T23:09:29.559Z,21.29
2022-08-24T23:12:14.507Z,21.39
2022-08-24T23:14:43.605Z,21.44
2022-08-24T23:17:13.079Z,21.31
2022-08-24T23:19:59.188Z,21.23
2022-08-24T23:22:31.740Z,21.20
2022-08-24T23:25:02.158Z,21.12
2022-08-24T23:27:32.967Z,21.12
2022-08-24T23:30:09.473Z,21.02
2022-08-24T23:32:38.655Z,20.93
2022-08-24T23:35:08.466Z,20.99
2022-08-24T23:37:37.190Z,21.02
2022-08-24T23:40:08.398Z,21.11
2022-08-24T23:42:37.253Z,21.07
2022-08-24T23:45:07.795Z,21.11
2022-08-24T23:47:39.948Z,20.99
2022-08-24T23:50:10.906Z,20.80
2022-08-24T23:52:40.759Z,20.71
2022-08-24T23:55:21.630Z,20.78
2022-08-24T23:57:52.172Z,20.75
